createdAt,value
2022-10-21T00:03:16.633Z,29.4
2022-10-21T00:18:28.986Z,28.6
2022-10-21T00:33:38.373Z,23.5
2022-10-21T00:48:47.749Z,26.5
2022-10-21T01:03:57.126Z,27
2022-10-21T01:19:06.891Z,26.8
2022-10-21T01:34:16.555Z,21.6
2022-10-21T01:49:25.929Z,21.4
2022-10-21T02:04:35.444Z,26.2
2022-10-21T02:19:45.337Z,23.1
2022-10-21T02:34:55.478Z,19.4
2022-10-21T02:50:04.530Z,18.8
2022-10-21T03:05:14.308Z,21
2022-10-21T03:20:23.860Z,21.3
2022-10-21T03:35:33.502Z,18.9
2022-10-21T03:50:42.594Z,20.3
2022-10-21T04:05:52.367Z,16.7
2022-10-21T04:21:02.500Z,24.2
2022-10-21T04:36:11.602Z,23.2
2022-10-21T04:51:21.009Z,23.2
2022-10-21T05:06:32.916Z,20.4
2022-10-21T05:21:42.660Z,17.9
2022-10-21T05:36:51.593Z,20.8
2022-10-21T05:52:01.044Z,25.5
2022-10-21T06:07:11.193Z,19.5
2022-10-21T06:22:20.994Z,20.3
2022-10-21T06:37:30.789Z,20.4
2022-10-21T06:52:40.168Z,22.4
2022-10-21T07:07:49.634Z,16.7
2022-10-21T07:22:58.649Z,20
2022-10-21T07:38:07.925Z,17.6
2022-10-21T07:53:18.947Z,16.5
2022-10-21T08:08:29.986Z,17.1
2022-10-21T08:23:39.520Z,19.4
2022-10-21T08:38:49.229Z,17.6
2022-10-21T08:53:59.117Z,14.1
2022-10-21T09:09:09.455Z,16.3
2022-10-21T09:24:20.948Z,10.2
2022-10-21T09:39:31.268Z,11
2022-10-21T09:54:40.900Z,7.9
2022-10-21T10:09:50.548Z,10.7
2022-10-21T10:25:00.275Z,10
2022-10-21T10:40:10.198Z,10.7
2022-10-21T10:55:21.977Z,12
2022-10-21T11:10:32.419Z,7.5
2022-10-21T11:25:42.764Z,6.4
2022-10-21T11:40:52.795Z,9.3
2022-10-21T11:56:02.840Z,9.5
2022-10-21T12:11:12.867Z,8.4
2022-10-21T12:26:23.012Z,8.5
2022-10-21T12:41:32.944Z,9.7
2022-10-21T12:56:43.163Z,15.3
2022-10-21T13:11:52.536Z,13.7
2022-10-21T13:27:02.147Z,8.6
2022-10-21T13:42:19.797Z,16.2
2022-10-21T13:57:34.894Z,12.2
2022-10-21T14:12:44.765Z,10.8
2022-10-21T14:27:54.003Z,10.2
2022-10-21T14:43:03.882Z,8.1
2022-10-21T14:58:14.366Z,9.3
2022-10-21T15:13:24.516Z,9.2
2022-10-21T15:28:34.006Z,10.9
2022-10-21T15:43:43.637Z,6.7
2022-10-21T15:58:53.488Z,8
2022-10-21T16:14:02.684Z,7.2
2022-10-21T16:29:14.971Z,10.2
2022-10-21T16:44:24.871Z,10
2022-10-21T16:59:34.814Z,6.9
2022-10-21T17:14:44.468Z,7.3
2022-10-21T17:29:54.082Z,7.7
2022-10-21T17:45:04.497Z,6.6
2022-10-21T18:00:14.143Z,6.1
2022-10-21T18:15:23.712Z,9.8
2022-10-21T18:30:33.189Z,7.6
2022-10-21T18:45:42.805Z,10.3
2022-10-21T19:00:52.331Z,9.2
2022-10-21T19:17:19.581Z,15
2022-10-21T19:32:29.774Z,9.3
2022-10-21T19:47:38.827Z,11.2
2022-10-21T20:02:48.401Z,11
2022-10-21T20:17:57.748Z,10.5
2022-10-21T20:33:07.425Z,12
2022-10-21T20:48:16.947Z,13.2
2022-10-21T21:03:26.408Z,11.1
2022-10-21T21:18:35.674Z,12
2022-10-21T21:33:45.059Z,13.4
2022-10-21T21:49:05.384Z,16.5
2022-10-21T22:04:16.629Z,9.5
2022-10-21T22:19:27.027Z,9
2022-10-21T22:34:36.015Z,9.3
2022-10-21T22:49:45.354Z,7.2
2022-10-21T23:04:54.815Z,7
2022-10-21T23:20:04.326Z,7.1
2022-10-21T23:35:13.763Z,7.2
2022-10-21T23:50:23.042Z,7.9
